Nanaimo Airport
CYCD : now visible

Airfield :











YOU CAN JOIN US ON...

 
LOGIN :

Register | Disclaimer

   EN    FR    IT 

 









Legend :    VFR   Marginal VFR   IFR   Intensive IFR   Very Intensive IFR
Visi :
Ceiling :
>= 8 km
>= 3000ft
5 to 8 km
1000 to 3000 ft
1500m to 5 km
500 to 1000 ft
800 to 1500m
200 to 500 ft
< 800m
< 200 ft
Symbols :   Thunderstorms  Fog  Heavy snow  Heavy precipitations  Wind > 20 kt






- Airport Elevation : 93 ft
- IATA code : YCD


CYCD - Nanaimo

CURRENT METAR :
  • 171600Z 24004KT 20SM FEW020TCU BKN250 M06/M08 A3010 RMK TCU1CI5 SLP196

EXPIRED METARs :
  • 171500Z 25004KT 210V290 20SM FEW250 M06/M08 A3007 RMK CI1 FROIN SLP186
  • 171400Z VRB02KT 20SM SKC M07/M08 A3003 RMK FROIN SLP173

TAF TAF CYCD
Valid from the 17 at 16:00 until the 18 at 04:00 UTC


171538Z 1716/1804 VRB03KT P6SM FEW240
BECMG 1717/1719 10008KT
FM172100 10008KT P6SM SCT015 BKN100
TEMPO 1721/1804 3SM -SHRASN BR SCT006 BKN015 OVC100 RMK NXT FCST BY 171800Z



MET'MAP, your aeronautical weather chart ! - Copyright ORBIFLY December 2007 - Disclaimer

ORBIFLY MET'MAP TEAM :

Programming & Development : Alexandra Zaïnal
Concept & original design : Baudouin d'Aumeries
Assistance for programming : Marc-Olivier Méhu
Technical & hardware support : Manuel Goepfert

Contact : metmap@orbifly.com




SOURCES & CREDITS :

   NOAA       Earth
Advisory